Galileo — SX2040 — position and weather

sailwx.info

Track history (hours):
 
Tides and Currents Weather Stations Pressure Air Temp Water Temp Dewpoint Dewpoint Depression Visibility Wind Speed Wind Dir Waves Ship Positions

Galileo

Last reported at 2014-Oct-31 23:33 UTC. Time now 2014-Nov-01 00:20 UTC.
Position N 37°56' E 023°39'.

Length 40 m; draft 3 m.

Type: Passenger vessel. MMSI: 239299000.

Date/timePositionNaut miles runAvg speedWind from/ knotsBaromVisibWave heightAir tempDewpointWater temp
2014-Oct-31 23:33N 37°56' E 023°39'0 0.0
2014-Oct-31 22:33N 37°56' E 023°39'0 0.0
2014-Oct-31 21:33N 37°56' E 023°39'0 0.0
2014-Oct-31 20:33N 37°56' E 023°39'0 0.0
2014-Oct-31 19:33N 37°56' E 023°39'0 0.0
2014-Oct-31 18:33N 37°56' E 023°39'0 0.0
2014-Oct-31 17:33N 37°56' E 023°39'0 0.0
2014-Oct-31 16:33N 37°56' E 023°39'0 0.0
2014-Oct-31 15:33N 37°56' E 023°39'5 4.6
2014-Oct-31 14:33N 37°53' E 023°35'9 9.1
2014-Oct-31 13:33N 37°47' E 023°26'2 0.9
2014-Oct-31 11:16N 37°45' E 023°26'0 0.0
2014-Oct-31 10:32N 37°45' E 023°26'0 0.0
2014-Oct-31 08:32N 37°45' E 023°26'1 0.5
2014-Oct-31 07:32N 37°44' E 023°25'8 8.1
2014-Oct-31 06:33N 37°38' E 023°31'65 8.8
2014-Oct-30 23:11N 37°21' E 024°50'8 8.2
2014-Oct-30 22:15N 37°25' E 024°58'2 2.6
2014-Oct-30 21:28N 37°27' E 024°57'0 0.0
2014-Oct-30 20:26N 37°27' E 024°57'0 0.0
2014-Oct-30 19:22N 37°27' E 024°57'0 0.0
2014-Oct-30 18:28N 37°27' E 024°57'0 0.0
2014-Oct-30 17:10N 37°27' E 024°57'0 0.0
2014-Oct-30 16:32N 37°27' E 024°57'0 0.0
2014-Oct-30 15:31N 37°27' E 024°57'0 0.0
2014-Oct-30 14:12N 37°27' E 024°57'0 0.0
2014-Oct-30 13:33N 37°27' E 024°57'0 0.0
2014-Oct-30 12:29N 37°27' E 024°57'0 0.0
2014-Oct-30 11:20N 37°27' E 024°57'0 0.0
2014-Oct-30 10:24N 37°27' E 024°57'0 0.0
2014-Oct-30 09:28N 37°27' E 024°57'0 0.0
2014-Oct-30 08:32N 37°27' E 024°57'2 1.8
2014-Oct-30 07:29N 37°26' E 024°59'9 9.8
2014-Oct-30 06:33N 37°27' E 025°11'7 6.8
2014-Oct-30 05:29N 37°28' E 025°20'0 0.0
2014-Oct-30 04:24N 37°28' E 025°20'0 0.0
2014-Oct-30 03:33N 37°28' E 025°20'0 0.0
2014-Oct-30 02:31N 37°28' E 025°20'0 0.0
2014-Oct-30 01:33N 37°28' E 025°20'0 0.0
2014-Oct-30 00:33N 37°28' E 025°20'0 0.0
2014-Oct-29 23:30N 37°28' E 025°20'0 0.0
2014-Oct-29 22:33N 37°28' E 025°20'0 0.0
2014-Oct-29 21:30N 37°28' E 025°20'0 0.0
2014-Oct-29 20:30N 37°28' E 025°20'0 0.0
2014-Oct-29 19:28N 37°28' E 025°20'0 0.0
2014-Oct-29 18:33N 37°28' E 025°20'0 0.0
2014-Oct-29 17:24N 37°28' E 025°20'0 0.0
2014-Oct-29 16:32N 37°28' E 025°20'0 0.0
2014-Oct-29 15:30N 37°28' E 025°20'0 0.0
2014-Oct-29 14:24N 37°28' E 025°20'0 0.0
2014-Oct-29 13:30N 37°28' E 025°20'0 0.0
2014-Oct-29 12:32N 37°28' E 025°20'0 0.0
2014-Oct-29 11:32N 37°28' E 025°20'0 0.0
2014-Oct-29 10:32N 37°28' E 025°20'0 0.0
2014-Oct-29 09:32N 37°28' E 025°20'0 0.0
2014-Oct-29 08:32N 37°28' E 025°20'0 0.0
2014-Oct-29 07:32N 37°28' E 025°20'3 2.7
2014-Oct-29 06:34N 37°26' E 025°17'9 9.3
2014-Oct-29 05:32N 37°17' E 025°14'47 1.7
2014-Oct-28 02:32N 36°30' E 025°20'7 6.9
2014-Oct-28 01:32N 36°25' E 025°26'0 0.0
2014-Oct-28 00:33N 36°25' E 025°26'0 0.0
2014-Oct-27 23:33N 36°25' E 025°26'0 0.0
2014-Oct-27 22:33N 36°25' E 025°26'0 0.0
2014-Oct-27 21:33N 36°25' E 025°26'0 0.0
2014-Oct-27 20:32N 36°25' E 025°26'0 0.0
2014-Oct-27 19:33N 36°25' E 025°26'0 0.0
2014-Oct-27 18:33N 36°25' E 025°26'0 0.0
2014-Oct-27 17:32N 36°25' E 025°26'0 0.0
2014-Oct-27 16:32N 36°25' E 025°26'0 0.0
2014-Oct-27 15:33N 36°25' E 025°26'0 0.0
2014-Oct-27 14:33N 36°25' E 025°26'0 0.0
2014-Oct-27 13:33N 36°25' E 025°26'0 0.0
2014-Oct-27 12:32N 36°25' E 025°26'0 0.0
2014-Oct-27 11:34N 36°25' E 025°26'0 0.0
2014-Oct-27 10:33N 36°25' E 025°26'0 0.0
2014-Oct-27 09:33N 36°25' E 025°26'0 0.0
2014-Oct-27 08:33N 36°25' E 025°26'2 2.4
2014-Oct-27 07:33N 36°26' E 025°23'9 9.2
2014-Oct-27 06:32N 36°31' E 025°13'10 9.3
2014-Oct-27 05:27N 36°35' E 025°02'4 4.5
2014-Oct-27 04:33N 36°37' E 024°57'0 0.0
2014-Oct-27 03:32N 36°37' E 024°57'0 0.0
2014-Oct-27 02:33N 36°37' E 024°57'0 0.0
2014-Oct-27 01:30N 36°37' E 024°57'0 0.0
2014-Oct-27 00:32N 36°37' E 024°57'0 0.0
2014-Oct-26 23:32N 36°37' E 024°57'0 0.0
2014-Oct-26 22:31N 36°37' E 024°57'0 0.0
2014-Oct-26 21:29N 36°37' E 024°57'0 0.0
2014-Oct-26 20:30N 36°37' E 024°57'0 0.0
2014-Oct-26 19:30N 36°37' E 024°57'0 0.0
2014-Oct-26 18:28N 36°37' E 024°57'0 0.0
2014-Oct-26 17:33N 36°37' E 024°57'0 0.0
2014-Oct-26 16:32N 36°37' E 024°57'0 0.0
2014-Oct-26 15:28N 36°37' E 024°57'0 0.0
2014-Oct-26 14:33N 36°37' E 024°57'0 0.0
2014-Oct-26 13:32N 36°37' E 024°57'0 0.0
2014-Oct-26 12:33N 36°37' E 024°57'0 0.0
2014-Oct-26 11:33N 36°37' E 024°57'0 0.0
2014-Oct-26 10:32N 36°37' E 024°57'0 0.0
2014-Oct-26 09:28N 36°37' E 024°57'0 0.0
2014-Oct-26 08:32N 36°37' E 024°57'17 7.7
2014-Oct-26 06:19N 36°43' E 024°37'73 9.4
2014-Oct-25 22:32N 37°30' E 023°27'0 0.0
2014-Oct-25 16:29N 37°30' E 023°27'16 8.6
2014-Oct-25 14:34N 37°45' E 023°35'10 9.6
2014-Oct-25 13:34N 37°54' E 023°39'2 1.5
2014-Oct-25 12:34N 37°56' E 023°39'0 0.0
2014-Oct-25 11:34N 37°56' E 023°39'0 0.0
2014-Oct-25 10:34N 37°56' E 023°39'0 0.0
2014-Oct-25 09:34N 37°56' E 023°39'1 0.7
2014-Oct-25 08:34N 37°55' E 023°39'9 9.5
2014-Oct-25 07:33N 37°46' E 023°35'18 0.8
2014-Oct-24 09:12N 37°30' E 023°27'0 0.0
2014-Oct-24 00:34N 37°30' E 023°27'72 7.0
2014-Oct-23 14:21N 37°29' E 024°57'2 2.8
2014-Oct-23 13:32N 37°26' E 024°57'0 0.0
2014-Oct-23 12:32N 37°26' E 024°57'0 0.0
2014-Oct-23 11:12N 37°26' E 024°57'0 0.0
2014-Oct-23 10:17N 37°26' E 024°57'0 0.0
2014-Oct-23 09:10N 37°26' E 024°57'0 0.0
2014-Oct-23 08:06N 37°26' E 024°57'0 0.0
2014-Oct-23 07:21N 37°26' E 024°57'0 0.0
2014-Oct-23 06:27N 37°26' E 024°57'0 0.0
2014-Oct-23 05:33N 37°26' E 024°57'0 0.0
2014-Oct-23 04:23N 37°26' E 024°57'0 0.0
2014-Oct-23 03:30N 37°26' E 024°57'0 0.0
2014-Oct-23 02:17N 37°26' E 024°57'0 0.0
2014-Oct-23 01:30N 37°26' E 024°57'0 0.0
2014-Oct-23 00:32N 37°26' E 024°57'0 0.0
2014-Oct-22 23:26N 37°26' E 024°57'0 0.0
2014-Oct-22 22:32N 37°26' E 024°57'0 0.0
2014-Oct-22 21:23N 37°26' E 024°57'0 0.0
2014-Oct-22 20:09N 37°26' E 024°57'0 0.0
2014-Oct-22 19:29N 37°26' E 024°57'0 0.0
2014-Oct-22 18:22N 37°26' E 024°57'0 0.0
2014-Oct-22 17:31N 37°26' E 024°57'0 0.0
2014-Oct-22 16:33N 37°26' E 024°57'0 0.0
2014-Oct-22 15:24N 37°26' E 024°57'0 0.0
2014-Oct-22 14:32N 37°26' E 024°57'0 0.0
2014-Oct-22 13:29N 37°26' E 024°57'0 0.0
2014-Oct-22 12:29N 37°26' E 024°57'0 0.0
2014-Oct-22 11:29N 37°26' E 024°57'0 0.0
2014-Oct-22 10:31N 37°26' E 024°57'0 0.0
2014-Oct-22 09:31N 37°26' E 024°57'0 0.0
2014-Oct-22 08:29N 37°26' E 024°57'0 0.0
2014-Oct-22 07:31N 37°26' E 024°57'0 0.0
2014-Oct-22 06:28N 37°26' E 024°57'0 0.0
2014-Oct-22 05:22N 37°26' E 024°57'4 3.6
2014-Oct-22 04:07N 37°23' E 025°01'35 8.9
2014-Oct-22 00:12N 36°49' E 025°06'  
Track history (hours):
 
Tides and Currents Weather Stations Pressure Air Temp Water Temp Dewpoint Dewpoint Depression Visibility Wind Speed Wind Dir Waves Ship Positions

Galileo

Last reported at 2014-Oct-31 23:33 UTC. Time now 2014-Nov-01 00:20 UTC.
Position N 37°56' E 023°39'.

Length 40 m; draft 3 m.

Type: Passenger vessel. MMSI: 239299000.

Date/timePositionNaut miles runAvg speedWind from/ knotsBaromVisibWave heightAir tempDewpointWater temp
2014-Oct-31 23:33N 37°56' E 023°39'0 0.0
2014-Oct-31 22:33N 37°56' E 023°39'0 0.0
2014-Oct-31 21:33N 37°56' E 023°39'0 0.0
2014-Oct-31 20:33N 37°56' E 023°39'0 0.0
2014-Oct-31 19:33N 37°56' E 023°39'0 0.0
2014-Oct-31 18:33N 37°56' E 023°39'0 0.0
2014-Oct-31 17:33N 37°56' E 023°39'0 0.0
2014-Oct-31 16:33N 37°56' E 023°39'0 0.0
2014-Oct-31 15:33N 37°56' E 023°39'5 4.6
2014-Oct-31 14:33N 37°53' E 023°35'9 9.1
2014-Oct-31 13:33N 37°47' E 023°26'2 0.9
2014-Oct-31 11:16N 37°45' E 023°26'0 0.0
2014-Oct-31 10:32N 37°45' E 023°26'0 0.0
2014-Oct-31 08:32N 37°45' E 023°26'1 0.5
2014-Oct-31 07:32N 37°44' E 023°25'8 8.1
2014-Oct-31 06:33N 37°38' E 023°31'65 8.8
2014-Oct-30 23:11N 37°21' E 024°50'8 8.2
2014-Oct-30 22:15N 37°25' E 024°58'2 2.6
2014-Oct-30 21:28N 37°27' E 024°57'0 0.0
2014-Oct-30 20:26N 37°27' E 024°57'0 0.0
2014-Oct-30 19:22N 37°27' E 024°57'0 0.0
2014-Oct-30 18:28N 37°27' E 024°57'0 0.0
2014-Oct-30 17:10N 37°27' E 024°57'0 0.0
2014-Oct-30 16:32N 37°27' E 024°57'0 0.0
2014-Oct-30 15:31N 37°27' E 024°57'0 0.0
2014-Oct-30 14:12N 37°27' E 024°57'0 0.0
2014-Oct-30 13:33N 37°27' E 024°57'0 0.0
2014-Oct-30 12:29N 37°27' E 024°57'0 0.0
2014-Oct-30 11:20N 37°27' E 024°57'0 0.0
2014-Oct-30 10:24N 37°27' E 024°57'0 0.0
2014-Oct-30 09:28N 37°27' E 024°57'0 0.0
2014-Oct-30 08:32N 37°27' E 024°57'2 1.8
2014-Oct-30 07:29N 37°26' E 024°59'9 9.8
2014-Oct-30 06:33N 37°27' E 025°11'7 6.8
2014-Oct-30 05:29N 37°28' E 025°20'0 0.0
2014-Oct-30 04:24N 37°28' E 025°20'0 0.0
2014-Oct-30 03:33N 37°28' E 025°20'0 0.0
2014-Oct-30 02:31N 37°28' E 025°20'0 0.0
2014-Oct-30 01:33N 37°28' E 025°20'0 0.0
2014-Oct-30 00:33N 37°28' E 025°20'0 0.0
2014-Oct-29 23:30N 37°28' E 025°20'0 0.0
2014-Oct-29 22:33N 37°28' E 025°20'0 0.0
2014-Oct-29 21:30N 37°28' E 025°20'0 0.0
2014-Oct-29 20:30N 37°28' E 025°20'0 0.0
2014-Oct-29 19:28N 37°28' E 025°20'0 0.0
2014-Oct-29 18:33N 37°28' E 025°20'0 0.0
2014-Oct-29 17:24N 37°28' E 025°20'0 0.0
2014-Oct-29 16:32N 37°28' E 025°20'0 0.0
2014-Oct-29 15:30N 37°28' E 025°20'0 0.0
2014-Oct-29 14:24N 37°28' E 025°20'0 0.0
2014-Oct-29 13:30N 37°28' E 025°20'0 0.0
2014-Oct-29 12:32N 37°28' E 025°20'0 0.0
2014-Oct-29 11:32N 37°28' E 025°20'0 0.0
2014-Oct-29 10:32N 37°28' E 025°20'0 0.0
2014-Oct-29 09:32N 37°28' E 025°20'0 0.0
2014-Oct-29 08:32N 37°28' E 025°20'0 0.0
2014-Oct-29 07:32N 37°28' E 025°20'3 2.7
2014-Oct-29 06:34N 37°26' E 025°17'9 9.3
2014-Oct-29 05:32N 37°17' E 025°14'47 1.7
2014-Oct-28 02:32N 36°30' E 025°20'7 6.9
2014-Oct-28 01:32N 36°25' E 025°26'0 0.0
2014-Oct-28 00:33N 36°25' E 025°26'0 0.0
2014-Oct-27 23:33N 36°25' E 025°26'0 0.0
2014-Oct-27 22:33N 36°25' E 025°26'0 0.0
2014-Oct-27 21:33N 36°25' E 025°26'0 0.0
2014-Oct-27 20:32N 36°25' E 025°26'0 0.0
2014-Oct-27 19:33N 36°25' E 025°26'0 0.0
2014-Oct-27 18:33N 36°25' E 025°26'0 0.0
2014-Oct-27 17:32N 36°25' E 025°26'0 0.0
2014-Oct-27 16:32N 36°25' E 025°26'0 0.0
2014-Oct-27 15:33N 36°25' E 025°26'0 0.0
2014-Oct-27 14:33N 36°25' E 025°26'0 0.0
2014-Oct-27 13:33N 36°25' E 025°26'0 0.0
2014-Oct-27 12:32N 36°25' E 025°26'0 0.0
2014-Oct-27 11:34N 36°25' E 025°26'0 0.0
2014-Oct-27 10:33N 36°25' E 025°26'0 0.0
2014-Oct-27 09:33N 36°25' E 025°26'0 0.0
2014-Oct-27 08:33N 36°25' E 025°26'2 2.4
2014-Oct-27 07:33N 36°26' E 025°23'9 9.2
2014-Oct-27 06:32N 36°31' E 025°13'10 9.3
2014-Oct-27 05:27N 36°35' E 025°02'4 4.5
2014-Oct-27 04:33N 36°37' E 024°57'0 0.0
2014-Oct-27 03:32N 36°37' E 024°57'0 0.0
2014-Oct-27 02:33N 36°37' E 024°57'0 0.0
2014-Oct-27 01:30N 36°37' E 024°57'0 0.0
2014-Oct-27 00:32N 36°37' E 024°57'0 0.0
2014-Oct-26 23:32N 36°37' E 024°57'0 0.0
2014-Oct-26 22:31N 36°37' E 024°57'0 0.0
2014-Oct-26 21:29N 36°37' E 024°57'0 0.0
2014-Oct-26 20:30N 36°37' E 024°57'0 0.0
2014-Oct-26 19:30N 36°37' E 024°57'0 0.0
2014-Oct-26 18:28N 36°37' E 024°57'0 0.0
2014-Oct-26 17:33N 36°37' E 024°57'0 0.0
2014-Oct-26 16:32N 36°37' E 024°57'0 0.0
2014-Oct-26 15:28N 36°37' E 024°57'0 0.0
2014-Oct-26 14:33N 36°37' E 024°57'0 0.0
2014-Oct-26 13:32N 36°37' E 024°57'0 0.0
2014-Oct-26 12:33N 36°37' E 024°57'0 0.0
2014-Oct-26 11:33N 36°37' E 024°57'0 0.0
2014-Oct-26 10:32N 36°37' E 024°57'0 0.0
2014-Oct-26 09:28N 36°37' E 024°57'0 0.0
2014-Oct-26 08:32N 36°37' E 024°57'17 7.7
2014-Oct-26 06:19N 36°43' E 024°37'73 9.4
2014-Oct-25 22:32N 37°30' E 023°27'0 0.0
2014-Oct-25 16:29N 37°30' E 023°27'16 8.6
2014-Oct-25 14:34N 37°45' E 023°35'10 9.6
2014-Oct-25 13:34N 37°54' E 023°39'2 1.5
2014-Oct-25 12:34N 37°56' E 023°39'0 0.0
2014-Oct-25 11:34N 37°56' E 023°39'0 0.0
2014-Oct-25 10:34N 37°56' E 023°39'0 0.0
2014-Oct-25 09:34N 37°56' E 023°39'1 0.7
2014-Oct-25 08:34N 37°55' E 023°39'9 9.5
2014-Oct-25 07:33N 37°46' E 023°35'18 0.8
2014-Oct-24 09:12N 37°30' E 023°27'0 0.0
2014-Oct-24 00:34N 37°30' E 023°27'72 7.0
2014-Oct-23 14:21N 37°29' E 024°57'2 2.8
2014-Oct-23 13:32N 37°26' E 024°57'0 0.0
2014-Oct-23 12:32N 37°26' E 024°57'0 0.0
2014-Oct-23 11:12N 37°26' E 024°57'0 0.0
2014-Oct-23 10:17N 37°26' E 024°57'0 0.0
2014-Oct-23 09:10N 37°26' E 024°57'0 0.0
2014-Oct-23 08:06N 37°26' E 024°57'0 0.0
2014-Oct-23 07:21N 37°26' E 024°57'0 0.0
2014-Oct-23 06:27N 37°26' E 024°57'0 0.0
2014-Oct-23 05:33N 37°26' E 024°57'0 0.0
2014-Oct-23 04:23N 37°26' E 024°57'0 0.0
2014-Oct-23 03:30N 37°26' E 024°57'0 0.0
2014-Oct-23 02:17N 37°26' E 024°57'0 0.0
2014-Oct-23 01:30N 37°26' E 024°57'0 0.0
2014-Oct-23 00:32N 37°26' E 024°57'0 0.0
2014-Oct-22 23:26N 37°26' E 024°57'0 0.0
2014-Oct-22 22:32N 37°26' E 024°57'0 0.0
2014-Oct-22 21:23N 37°26' E 024°57'0 0.0
2014-Oct-22 20:09N 37°26' E 024°57'0 0.0
2014-Oct-22 19:29N 37°26' E 024°57'0 0.0
2014-Oct-22 18:22N 37°26' E 024°57'0 0.0
2014-Oct-22 17:31N 37°26' E 024°57'0 0.0
2014-Oct-22 16:33N 37°26' E 024°57'0 0.0
2014-Oct-22 15:24N 37°26' E 024°57'0 0.0
2014-Oct-22 14:32N 37°26' E 024°57'0 0.0
2014-Oct-22 13:29N 37°26' E 024°57'0 0.0
2014-Oct-22 12:29N 37°26' E 024°57'0 0.0
2014-Oct-22 11:29N 37°26' E 024°57'0 0.0
2014-Oct-22 10:31N 37°26' E 024°57'0 0.0
2014-Oct-22 09:31N 37°26' E 024°57'0 0.0
2014-Oct-22 08:29N 37°26' E 024°57'0 0.0
2014-Oct-22 07:31N 37°26' E 024°57'0 0.0
2014-Oct-22 06:28N 37°26' E 024°57'0 0.0
2014-Oct-22 05:22N 37°26' E 024°57'4 3.6
2014-Oct-22 04:07N 37°23' E 025°01'35 8.9
2014-Oct-22 00:12N 36°49' E 025°06'  

Dump ship's entire track history